sensor_id;sensor_type;location;lat;lon;timestamp;P1;durP1;ratioP1;P2;durP2;ratioP2
10945;SDS011;5525;42.648;23.368;2022-08-19T00:01:23;7.15;;;6.45;;
10945;SDS011;5525;42.648;23.368;2022-08-19T00:03:51;7.53;;;6.85;;
10945;SDS011;5525;42.648;23.368;2022-08-19T00:06:19;6.80;;;6.15;;
10945;SDS011;5525;42.648;23.368;2022-08-19T00:08:46;7.15;;;6.45;;
10945;SDS011;5525;42.648;23.368;2022-08-19T00:11:13;7.20;;;6.60;;
10945;SDS011;5525;42.648;23.368;2022-08-19T00:13:40;7.85;;;6.72;;
10945;SDS011;5525;42.648;23.368;2022-08-19T00:16:07;7.18;;;6.57;;
10945;SDS011;5525;42.648;23.368;2022-08-19T00:18:34;8.13;;;6.63;;
10945;SDS011;5525;42.648;23.368;2022-08-19T00:21:01;9.48;;;6.78;;
10945;SDS011;5525;42.648;23.368;2022-08-19T00:23:31;8.82;;;6.47;;
10945;SDS011;5525;42.648;23.368;2022-08-19T00:25:59;7.28;;;6.68;;
10945;SDS011;5525;42.648;23.368;2022-08-19T00:28:26;7.07;;;6.47;;
10945;SDS011;5525;42.648;23.368;2022-08-19T00:30:53;7.72;;;6.40;;
10945;SDS011;5525;42.648;23.368;2022-08-19T00:33:20;7.95;;;6.32;;
10945;SDS011;5525;42.648;23.368;2022-08-19T00:35:47;6.90;;;6.20;;
10945;SDS011;5525;42.648;23.368;2022-08-19T00:38:14;6.93;;;6.30;;
10945;SDS011;5525;42.648;23.368;2022-08-19T00:40:43;8.07;;;6.63;;
10945;SDS011;5525;42.648;23.368;2022-08-19T00:43:11;7.30;;;6.15;;
10945;SDS011;5525;42.648;23.368;2022-08-19T00:45:39;6.35;;;5.85;;
10945;SDS011;5525;42.648;23.368;2022-08-19T00:48:08;7.10;;;6.43;;
10945;SDS011;5525;42.648;23.368;2022-08-19T00:50:35;7.57;;;6.88;;
10945;SDS011;5525;42.648;23.368;2022-08-19T00:53:05;7.18;;;6.57;;
10945;SDS011;5525;42.648;23.368;2022-08-19T00:55:33;7.13;;;6.47;;
10945;SDS011;5525;42.648;23.368;2022-08-19T00:58:02;8.35;;;6.40;;
10945;SDS011;5525;42.648;23.368;2022-08-19T01:00:32;6.75;;;6.15;;
10945;SDS011;5525;42.648;23.368;2022-08-19T01:03:01;7.30;;;6.60;;
10945;SDS011;5525;42.648;23.368;2022-08-19T01:05:29;7.80;;;6.82;;
10945;SDS011;5525;42.648;23.368;2022-08-19T01:07:56;7.28;;;6.53;;
10945;SDS011;5525;42.648;23.368;2022-08-19T01:10:28;6.97;;;6.30;;
10945;SDS011;5525;42.648;23.368;2022-08-19T01:13:06;7.00;;;6.30;;
10945;SDS011;5525;42.648;23.368;2022-08-19T01:15:35;7.80;;;7.00;;
10945;SDS011;5525;42.648;23.368;2022-08-19T01:18:09;7.40;;;6.65;;
10945;SDS011;5525;42.648;23.368;2022-08-19T01:20:38;7.68;;;6.53;;
10945;SDS011;5525;42.648;23.368;2022-08-19T01:23:07;7.75;;;7.05;;
10945;SDS011;5525;42.648;23.368;2022-08-19T01:25:35;7.22;;;6.53;;
10945;SDS011;5525;42.648;23.368;2022-08-19T01:28:12;8.57;;;6.63;;
10945;SDS011;5525;42.648;23.368;2022-08-19T01:30:42;7.53;;;6.75;;
10945;SDS011;5525;42.648;23.368;2022-08-19T01:33:12;7.78;;;6.97;;
10945;SDS011;5525;42.648;23.368;2022-08-19T01:35:40;7.30;;;6.60;;
10945;SDS011;5525;42.648;23.368;2022-08-19T01:38:18;8.23;;;6.30;;
10945;SDS011;5525;42.648;23.368;2022-08-19T01:40:48;7.25;;;6.50;;
10945;SDS011;5525;42.648;23.368;2022-08-19T01:43:15;8.45;;;7.20;;
10945;SDS011;5525;42.648;23.368;2022-08-19T01:45:44;8.05;;;7.25;;
10945;SDS011;5525;42.648;23.368;2022-08-19T01:48:13;7.53;;;6.82;;
10945;SDS011;5525;42.648;23.368;2022-08-19T01:50:41;7.45;;;6.82;;
10945;SDS011;5525;42.648;23.368;2022-08-19T01:53:10;7.78;;;7.07;;
10945;SDS011;5525;42.648;23.368;2022-08-19T01:55:39;7.47;;;6.78;;
10945;SDS011;5525;42.648;23.368;2022-08-19T01:58:08;7.70;;;6.85;;
10945;SDS011;5525;42.648;23.368;2022-08-19T02:00:38;7.95;;;7.13;;
10945;SDS011;5525;42.648;23.368;2022-08-19T02:03:05;7.88;;;7.10;;
10945;SDS011;5525;42.648;23.368;2022-08-19T02:05:36;7.13;;;6.43;;
10945;SDS011;5525;42.648;23.368;2022-08-19T02:08:03;7.30;;;6.60;;
10945;SDS011;5525;42.648;23.368;2022-08-19T02:10:32;7.20;;;6.60;;
10945;SDS011;5525;42.648;23.368;2022-08-19T02:12:59;7.60;;;6.90;;
10945;SDS011;5525;42.648;23.368;2022-08-19T02:15:26;7.95;;;6.60;;
10945;SDS011;5525;42.648;23.368;2022-08-19T02:17:53;7.60;;;7.00;;
10945;SDS011;5525;42.648;23.368;2022-08-19T02:20:20;7.65;;;6.95;;
10945;SDS011;5525;42.648;23.368;2022-08-19T02:22:47;8.27;;;7.15;;
10945;SDS011;5525;42.648;23.368;2022-08-19T02:25:14;7.38;;;6.63;;
10945;SDS011;5525;42.648;23.368;2022-08-19T02:27:43;9.55;;;8.25;;
10945;SDS011;5525;42.648;23.368;2022-08-19T02:30:11;8.80;;;6.93;;
10945;SDS011;5525;42.648;23.368;2022-08-19T02:32:41;11.68;;;7.03;;
10945;SDS011;5525;42.648;23.368;2022-08-19T02:35:08;7.25;;;6.55;;
10945;SDS011;5525;42.648;23.368;2022-08-19T02:37:35;7.90;;;7.10;;
10945;SDS011;5525;42.648;23.368;2022-08-19T02:40:20;8.25;;;7.45;;
10945;SDS011;5525;42.648;23.368;2022-08-19T02:42:48;8.23;;;7.10;;
10945;SDS011;5525;42.648;23.368;2022-08-19T02:45:14;8.20;;;7.47;;
10945;SDS011;5525;42.648;23.368;2022-08-19T02:47:41;8.80;;;7.90;;
10945;SDS011;5525;42.648;23.368;2022-08-19T02:50:08;9.10;;;8.10;;
10945;SDS011;5525;42.648;23.368;2022-08-19T02:52:35;9.10;;;8.18;;
10945;SDS011;5525;42.648;23.368;2022-08-19T02:55:02;8.98;;;8.18;;
10945;SDS011;5525;42.648;23.368;2022-08-19T02:57:30;8.25;;;7.40;;
10945;SDS011;5525;42.648;23.368;2022-08-19T02:59:59;8.73;;;7.65;;
10945;SDS011;5525;42.648;23.368;2022-08-19T03:02:26;7.82;;;7.13;;
10945;SDS011;5525;42.648;23.368;2022-08-19T03:04:53;7.40;;;6.70;;
10945;SDS011;5525;42.648;23.368;2022-08-19T03:07:20;8.82;;;7.90;;
10945;SDS011;5525;42.648;23.368;2022-08-19T03:09:47;7.93;;;6.80;;
10945;SDS011;5525;42.648;23.368;2022-08-19T03:12:14;7.93;;;6.80;;
10945;SDS011;5525;42.648;23.368;2022-08-19T03:14:47;8.73;;;7.10;;
10945;SDS011;5525;42.648;23.368;2022-08-19T03:17:15;7.90;;;7.20;;
10945;SDS011;5525;42.648;23.368;2022-08-19T03:19:42;8.13;;;7.43;;
10945;SDS011;5525;42.648;23.368;2022-08-19T03:22:09;10.05;;;7.38;;
10945;SDS011;5525;42.648;23.368;2022-08-19T03:24:36;8.27;;;7.50;;
10945;SDS011;5525;42.648;23.368;2022-08-19T03:27:03;8.75;;;7.40;;
10945;SDS011;5525;42.648;23.368;2022-08-19T03:29:30;8.68;;;7.78;;
10945;SDS011;5525;42.648;23.368;2022-08-19T03:31:58;8.20;;;7.40;;
10945;SDS011;5525;42.648;23.368;2022-08-19T03:34:29;11.25;;;7.82;;
10945;SDS011;5525;42.648;23.368;2022-08-19T03:36:58;11.57;;;8.32;;
10945;SDS011;5525;42.648;23.368;2022-08-19T03:39:29;10.35;;;8.27;;
10945;SDS011;5525;42.648;23.368;2022-08-19T03:41:55;9.05;;;8.13;;
10945;SDS011;5525;42.648;23.368;2022-08-19T03:44:25;9.68;;;8.43;;
10945;SDS011;5525;42.648;23.368;2022-08-19T03:46:53;10.43;;;8.13;;
10945;SDS011;5525;42.648;23.368;2022-08-19T03:49:22;8.93;;;7.70;;
10945;SDS011;5525;42.648;23.368;2022-08-19T03:51:53;10.93;;;8.55;;
10945;SDS011;5525;42.648;23.368;2022-08-19T03:54:22;11.13;;;8.85;;
10945;SDS011;5525;42.648;23.368;2022-08-19T03:56:50;9.95;;;8.88;;
10945;SDS011;5525;42.648;23.368;2022-08-19T03:59:20;19.33;;;9.70;;
10945;SDS011;5525;42.648;23.368;2022-08-19T04:01:50;11.45;;;8.80;;
10945;SDS011;5525;42.648;23.368;2022-08-19T04:04:17;14.23;;;8.13;;
10945;SDS011;5525;42.648;23.368;2022-08-19T04:06:44;9.13;;;8.32;;
10945;SDS011;5525;42.648;23.368;2022-08-19T04:09:13;8.65;;;7.60;;
10945;SDS011;5525;42.648;23.368;2022-08-19T04:11:41;8.63;;;7.72;;
10945;SDS011;5525;42.648;23.368;2022-08-19T04:14:11;8.43;;;7.60;;
10945;SDS011;5525;42.648;23.368;2022-08-19T04:16:39;10.50;;;7.68;;
10945;SDS011;5525;42.648;23.368;2022-08-19T04:19:06;8.80;;;7.78;;
10945;SDS011;5525;42.648;23.368;2022-08-19T04:21:33;9.02;;;8.07;;
10945;SDS011;5525;42.648;23.368;2022-08-19T04:24:00;10.25;;;8.60;;
10945;SDS011;5525;42.648;23.368;2022-08-19T04:26:31;9.82;;;8.52;;
10945;SDS011;5525;42.648;23.368;2022-08-19T04:29:00;9.90;;;8.52;;
10945;SDS011;5525;42.648;23.368;2022-08-19T04:31:31;10.40;;;7.97;;
10945;SDS011;5525;42.648;23.368;2022-08-19T04:34:01;10.40;;;8.90;;
10945;SDS011;5525;42.648;23.368;2022-08-19T04:36:30;11.65;;;8.35;;
10945;SDS011;5525;42.648;23.368;2022-08-19T04:38:59;9.57;;;7.97;;
10945;SDS011;5525;42.648;23.368;2022-08-19T04:41:30;10.40;;;8.13;;
10945;SDS011;5525;42.648;23.368;2022-08-19T04:44:15;9.18;;;8.02;;
10945;SDS011;5525;42.648;23.368;2022-08-19T04:46:43;9.85;;;8.25;;
10945;SDS011;5525;42.648;23.368;2022-08-19T04:49:10;11.02;;;7.60;;
10945;SDS011;5525;42.648;23.368;2022-08-19T04:51:39;8.80;;;7.60;;
10945;SDS011;5525;42.648;23.368;2022-08-19T04:54:07;10.07;;;7.35;;
10945;SDS011;5525;42.648;23.368;2022-08-19T04:56:35;8.40;;;6.75;;
10945;SDS011;5525;42.648;23.368;2022-08-19T04:59:02;8.85;;;6.82;;
10945;SDS011;5525;42.648;23.368;2022-08-19T05:01:29;9.82;;;6.68;;
10945;SDS011;5525;42.648;23.368;2022-08-19T05:03:58;10.18;;;7.50;;
10945;SDS011;5525;42.648;23.368;2022-08-19T05:06:25;10.65;;;7.32;;
10945;SDS011;5525;42.648;23.368;2022-08-19T05:08:56;10.30;;;9.32;;
10945;SDS011;5525;42.648;23.368;2022-08-19T05:11:23;10.23;;;8.02;;
10945;SDS011;5525;42.648;23.368;2022-08-19T05:13:53;10.65;;;7.60;;
10945;SDS011;5525;42.648;23.368;2022-08-19T05:16:20;9.30;;;8.38;;
10945;SDS011;5525;42.648;23.368;2022-08-19T05:18:49;10.43;;;8.60;;
10945;SDS011;5525;42.648;23.368;2022-08-19T05:21:34;8.45;;;7.40;;
10945;SDS011;5525;42.648;23.368;2022-08-19T05:24:19;8.75;;;7.20;;
10945;SDS011;5525;42.648;23.368;2022-08-19T05:26:48;9.38;;;8.43;;
10945;SDS011;5525;42.648;23.368;2022-08-19T05:29:19;10.93;;;8.27;;
10945;SDS011;5525;42.648;23.368;2022-08-19T05:31:47;11.27;;;8.18;;
10945;SDS011;5525;42.648;23.368;2022-08-19T05:34:15;10.93;;;8.35;;
10945;SDS011;5525;42.648;23.368;2022-08-19T05:36:43;10.93;;;8.68;;
10945;SDS011;5525;42.648;23.368;2022-08-19T05:39:13;10.48;;;9.02;;
10945;SDS011;5525;42.648;23.368;2022-08-19T05:41:41;13.52;;;9.02;;
10945;SDS011;5525;42.648;23.368;2022-08-19T05:44:09;10.20;;;8.68;;
10945;SDS011;5525;42.648;23.368;2022-08-19T05:46:38;9.60;;;8.38;;
10945;SDS011;5525;42.648;23.368;2022-08-19T05:49:06;14.98;;;10.48;;
10945;SDS011;5525;42.648;23.368;2022-08-19T05:51:34;12.40;;;9.07;;
10945;SDS011;5525;42.648;23.368;2022-08-19T05:54:04;11.80;;;8.93;;
10945;SDS011;5525;42.648;23.368;2022-08-19T05:56:32;11.63;;;8.88;;
10945;SDS011;5525;42.648;23.368;2022-08-19T05:59:01;9.65;;;8.38;;
10945;SDS011;5525;42.648;23.368;2022-08-19T06:01:29;12.02;;;8.23;;
10945;SDS011;5525;42.648;23.368;2022-08-19T06:03:57;11.20;;;7.88;;
10945;SDS011;5525;42.648;23.368;2022-08-19T06:06:24;10.80;;;8.05;;
10945;SDS011;5525;42.648;23.368;2022-08-19T06:08:51;7.53;;;6.82;;
10945;SDS011;5525;42.648;23.368;2022-08-19T06:11:19;9.82;;;7.50;;
10945;SDS011;5525;42.648;23.368;2022-08-19T06:13:49;10.95;;;7.30;;
10945;SDS011;5525;42.648;23.368;2022-08-19T06:16:18;9.77;;;6.80;;
10945;SDS011;5525;42.648;23.368;2022-08-19T06:18:48;8.95;;;7.35;;
10945;SDS011;5525;42.648;23.368;2022-08-19T06:21:18;8.32;;;7.47;;
10945;SDS011;5525;42.648;23.368;2022-08-19T06:23:46;9.13;;;6.90;;
10945;SDS011;5525;42.648;23.368;2022-08-19T06:26:13;10.27;;;7.85;;
10945;SDS011;5525;42.648;23.368;2022-08-19T06:28:41;10.93;;;7.95;;
10945;SDS011;5525;42.648;23.368;2022-08-19T06:31:12;9.13;;;7.60;;
10945;SDS011;5525;42.648;23.368;2022-08-19T06:33:39;8.73;;;7.03;;
10945;SDS011;5525;42.648;23.368;2022-08-19T06:36:07;7.45;;;6.38;;
10945;SDS011;5525;42.648;23.368;2022-08-19T06:38:43;6.85;;;6.22;;
10945;SDS011;5525;42.648;23.368;2022-08-19T06:41:11;6.53;;;5.93;;
10945;SDS011;5525;42.648;23.368;2022-08-19T06:43:38;6.07;;;5.53;;
10945;SDS011;5525;42.648;23.368;2022-08-19T06:46:09;7.85;;;6.43;;
10945;SDS011;5525;42.648;23.368;2022-08-19T06:48:38;6.97;;;6.30;;
10945;SDS011;5525;42.648;23.368;2022-08-19T06:51:05;8.25;;;5.80;;
10945;SDS011;5525;42.648;23.368;2022-08-19T06:53:33;11.20;;;6.80;;
10945;SDS011;5525;42.648;23.368;2022-08-19T06:56:02;7.05;;;6.18;;
10945;SDS011;5525;42.648;23.368;2022-08-19T06:58:29;7.10;;;6.40;;
10945;SDS011;5525;42.648;23.368;2022-08-19T07:00:59;7.00;;;6.30;;
10945;SDS011;5525;42.648;23.368;2022-08-19T07:03:28;6.85;;;6.25;;
10945;SDS011;5525;42.648;23.368;2022-08-19T07:05:57;10.65;;;6.10;;
10945;SDS011;5525;42.648;23.368;2022-08-19T07:21:37;7.63;;;6.93;;
10945;SDS011;5525;42.648;23.368;2022-08-19T07:24:05;11.65;;;6.88;;
10945;SDS011;5525;42.648;23.368;2022-08-19T07:26:33;10.63;;;7.15;;
10945;SDS011;5525;42.648;23.368;2022-08-19T07:29:09;8.60;;;6.43;;
10945;SDS011;5525;42.648;23.368;2022-08-19T07:31:37;9.55;;;6.55;;
10945;SDS011;5525;42.648;23.368;2022-08-19T07:34:05;10.18;;;6.50;;
10945;SDS011;5525;42.648;23.368;2022-08-19T07:36:35;11.00;;;6.40;;
10945;SDS011;5525;42.648;23.368;2022-08-19T07:39:08;10.32;;;6.18;;
10945;SDS011;5525;42.648;23.368;2022-08-19T07:41:37;8.38;;;6.43;;
10945;SDS011;5525;42.648;23.368;2022-08-19T07:44:05;8.98;;;6.05;;
10945;SDS011;5525;42.648;23.368;2022-08-19T07:46:34;11.52;;;6.53;;
10945;SDS011;5525;42.648;23.368;2022-08-19T07:49:03;8.15;;;6.93;;
10945;SDS011;5525;42.648;23.368;2022-08-19T07:51:32;9.45;;;6.63;;
10945;SDS011;5525;42.648;23.368;2022-08-19T07:54:01;9.80;;;6.45;;
10945;SDS011;5525;42.648;23.368;2022-08-19T07:56:29;7.78;;;6.20;;
10945;SDS011;5525;42.648;23.368;2022-08-19T07:58:57;10.85;;;7.70;;
10945;SDS011;5525;42.648;23.368;2022-08-19T08:01:24;10.27;;;6.32;;
10945;SDS011;5525;42.648;23.368;2022-08-19T08:03:56;7.05;;;6.35;;
10945;SDS011;5525;42.648;23.368;2022-08-19T08:06:41;11.05;;;6.47;;
10945;SDS011;5525;42.648;23.368;2022-08-19T08:09:30;9.13;;;6.28;;
10945;SDS011;5525;42.648;23.368;2022-08-19T08:12:07;8.35;;;6.30;;
10945;SDS011;5525;42.648;23.368;2022-08-19T08:14:38;9.60;;;6.28;;
10945;SDS011;5525;42.648;23.368;2022-08-19T08:17:08;6.97;;;6.30;;
10945;SDS011;5525;42.648;23.368;2022-08-19T08:19:35;8.80;;;6.43;;
10945;SDS011;5525;42.648;23.368;2022-08-19T08:22:05;10.43;;;5.90;;
10945;SDS011;5525;42.648;23.368;2022-08-19T08:24:33;7.30;;;6.10;;
10945;SDS011;5525;42.648;23.368;2022-08-19T08:27:01;9.85;;;6.00;;
10945;SDS011;5525;42.648;23.368;2022-08-19T08:29:30;12.38;;;7.75;;
10945;SDS011;5525;42.648;23.368;2022-08-19T08:31:57;7.95;;;5.60;;
10945;SDS011;5525;42.648;23.368;2022-08-19T08:34:24;7.28;;;6.45;;
10945;SDS011;5525;42.648;23.368;2022-08-19T08:36:51;12.25;;;6.65;;
10945;SDS011;5525;42.648;23.368;2022-08-19T08:39:18;7.15;;;6.03;;
10945;SDS011;5525;42.648;23.368;2022-08-19T08:41:49;7.22;;;6.35;;
10945;SDS011;5525;42.648;23.368;2022-08-19T08:44:20;8.13;;;5.68;;
10945;SDS011;5525;42.648;23.368;2022-08-19T08:46:50;6.97;;;6.25;;
10945;SDS011;5525;42.648;23.368;2022-08-19T08:49:26;7.57;;;6.13;;
10945;SDS011;5525;42.648;23.368;2022-08-19T08:51:59;8.40;;;5.80;;
10945;SDS011;5525;42.648;23.368;2022-08-19T08:54:32;6.22;;;4.45;;
10945;SDS011;5525;42.648;23.368;2022-08-19T08:57:06;5.78;;;4.20;;
10945;SDS011;5525;42.648;23.368;2022-08-19T08:59:40;5.13;;;4.63;;
10945;SDS011;5525;42.648;23.368;2022-08-19T09:02:08;8.35;;;4.88;;
10945;SDS011;5525;42.648;23.368;2022-08-19T09:04:35;4.40;;;4.00;;
10945;SDS011;5525;42.648;23.368;2022-08-19T09:07:10;5.00;;;4.60;;
10945;SDS011;5525;42.648;23.368;2022-08-19T09:09:50;4.60;;;4.13;;
10945;SDS011;5525;42.648;23.368;2022-08-19T09:12:23;5.80;;;5.00;;
10945;SDS011;5525;42.648;23.368;2022-08-19T09:15:00;6.78;;;5.63;;
10945;SDS011;5525;42.648;23.368;2022-08-19T09:17:31;5.32;;;4.82;;
10945;SDS011;5525;42.648;23.368;2022-08-19T09:20:05;5.47;;;4.60;;
10945;SDS011;5525;42.648;23.368;2022-08-19T09:22:41;4.40;;;4.10;;
10945;SDS011;5525;42.648;23.368;2022-08-19T09:25:12;4.10;;;3.80;;
10945;SDS011;5525;42.648;23.368;2022-08-19T09:27:42;6.55;;;4.10;;
10945;SDS011;5525;42.648;23.368;2022-08-19T09:30:12;5.60;;;4.88;;
10945;SDS011;5525;42.648;23.368;2022-08-19T09:32:42;4.90;;;4.20;;
10945;SDS011;5525;42.648;23.368;2022-08-19T09:35:11;4.25;;;3.88;;
10945;SDS011;5525;42.648;23.368;2022-08-19T09:37:42;4.70;;;4.20;;
10945;SDS011;5525;42.648;23.368;2022-08-19T09:40:10;4.85;;;4.45;;
10945;SDS011;5525;42.648;23.368;2022-08-19T09:42:38;4.40;;;3.92;;
10945;SDS011;5525;42.648;23.368;2022-08-19T09:45:10;6.93;;;3.70;;
10945;SDS011;5525;42.648;23.368;2022-08-19T09:47:37;3.97;;;3.60;;
10945;SDS011;5525;42.648;23.368;2022-08-19T09:50:04;4.43;;;4.00;;
10945;SDS011;5525;42.648;23.368;2022-08-19T09:52:33;7.90;;;4.68;;
10945;SDS011;5525;42.648;23.368;2022-08-19T09:55:03;7.93;;;4.50;;
10945;SDS011;5525;42.648;23.368;2022-08-19T09:57:30;5.60;;;3.97;;
10945;SDS011;5525;42.648;23.368;2022-08-19T09:59:57;3.90;;;3.55;;
10945;SDS011;5525;42.648;23.368;2022-08-19T10:02:26;3.70;;;3.40;;
10945;SDS011;5525;42.648;23.368;2022-08-19T10:04:53;5.28;;;3.47;;
10945;SDS011;5525;42.648;23.368;2022-08-19T10:07:37;4.15;;;3.70;;
10945;SDS011;5525;42.648;23.368;2022-08-19T10:10:05;4.68;;;4.22;;
10945;SDS011;5525;42.648;23.368;2022-08-19T10:12:34;4.47;;;4.13;;
10945;SDS011;5525;42.648;23.368;2022-08-19T10:15:02;6.20;;;4.40;;
10945;SDS011;5525;42.648;23.368;2022-08-19T10:17:33;5.22;;;4.40;;
10945;SDS011;5525;42.648;23.368;2022-08-19T10:20:00;5.78;;;4.60;;
10945;SDS011;5525;42.648;23.368;2022-08-19T10:22:29;6.78;;;4.57;;
10945;SDS011;5525;42.648;23.368;2022-08-19T10:24:57;6.03;;;4.50;;
10945;SDS011;5525;42.648;23.368;2022-08-19T10:27:24;5.22;;;4.68;;
10945;SDS011;5525;42.648;23.368;2022-08-19T10:29:51;4.88;;;4.47;;
10945;SDS011;5525;42.648;23.368;2022-08-19T10:32:18;5.57;;;4.68;;
10945;SDS011;5525;42.648;23.368;2022-08-19T10:34:48;6.10;;;4.90;;
10945;SDS011;5525;42.648;23.368;2022-08-19T10:37:17;4.78;;;4.38;;
10945;SDS011;5525;42.648;23.368;2022-08-19T10:39:46;5.95;;;4.80;;
10945;SDS011;5525;42.648;23.368;2022-08-19T10:42:14;4.97;;;4.53;;
10945;SDS011;5525;42.648;23.368;2022-08-19T10:44:43;5.50;;;4.50;;
10945;SDS011;5525;42.648;23.368;2022-08-19T10:47:12;4.75;;;4.30;;
10945;SDS011;5525;42.648;23.368;2022-08-19T10:49:39;4.68;;;4.20;;
10945;SDS011;5525;42.648;23.368;2022-08-19T10:52:24;5.10;;;4.60;;
10945;SDS011;5525;42.648;23.368;2022-08-19T10:55:04;5.13;;;4.60;;
10945;SDS011;5525;42.648;23.368;2022-08-19T10:57:50;4.95;;;4.43;;
10945;SDS011;5525;42.648;23.368;2022-08-19T11:00:18;5.28;;;4.65;;
10945;SDS011;5525;42.648;23.368;2022-08-19T11:02:46;5.63;;;5.05;;
10945;SDS011;5525;42.648;23.368;2022-08-19T11:05:14;5.05;;;4.55;;
10945;SDS011;5525;42.648;23.368;2022-08-19T11:07:44;5.70;;;4.57;;
10945;SDS011;5525;42.648;23.368;2022-08-19T11:10:15;7.15;;;4.55;;
10945;SDS011;5525;42.648;23.368;2022-08-19T11:12:44;5.28;;;4.88;;
10945;SDS011;5525;42.648;23.368;2022-08-19T11:15:13;5.95;;;4.80;;
10945;SDS011;5525;42.648;23.368;2022-08-19T11:17:40;5.40;;;4.95;;
10945;SDS011;5525;42.648;23.368;2022-08-19T11:20:09;7.30;;;4.63;;
10945;SDS011;5525;42.648;23.368;2022-08-19T11:22:37;7.50;;;4.93;;
10945;SDS011;5525;42.648;23.368;2022-08-19T11:25:07;4.97;;;4.57;;
10945;SDS011;5525;42.648;23.368;2022-08-19T11:27:37;5.28;;;4.80;;
10945;SDS011;5525;42.648;23.368;2022-08-19T11:30:07;6.20;;;4.80;;
10945;SDS011;5525;42.648;23.368;2022-08-19T11:32:35;5.68;;;4.72;;
10945;SDS011;5525;42.648;23.368;2022-08-19T11:35:02;5.63;;;4.75;;
10945;SDS011;5525;42.648;23.368;2022-08-19T11:37:30;5.25;;;4.85;;
10945;SDS011;5525;42.648;23.368;2022-08-19T11:39:57;6.00;;;4.70;;
10945;SDS011;5525;42.648;23.368;2022-08-19T11:42:27;5.50;;;5.00;;
10945;SDS011;5525;42.648;23.368;2022-08-19T11:45:12;6.93;;;4.97;;
10945;SDS011;5525;42.648;23.368;2022-08-19T11:47:39;5.60;;;5.10;;
10945;SDS011;5525;42.648;23.368;2022-08-19T11:50:06;5.65;;;4.75;;
10945;SDS011;5525;42.648;23.368;2022-08-19T11:52:33;6.50;;;5.00;;
10945;SDS011;5525;42.648;23.368;2022-08-19T11:55:00;5.63;;;4.82;;
10945;SDS011;5525;42.648;23.368;2022-08-19T11:57:29;7.82;;;5.75;;
10945;SDS011;5525;42.648;23.368;2022-08-19T11:59:56;5.60;;;4.90;;
10945;SDS011;5525;42.648;23.368;2022-08-19T12:02:22;5.35;;;4.85;;
10945;SDS011;5525;42.648;23.368;2022-08-19T12:04:50;7.88;;;4.80;;
10945;SDS011;5525;42.648;23.368;2022-08-19T12:07:17;6.57;;;5.43;;
10945;SDS011;5525;42.648;23.368;2022-08-19T12:09:44;7.03;;;5.13;;
10945;SDS011;5525;42.648;23.368;2022-08-19T12:12:11;6.25;;;5.75;;
10945;SDS011;5525;42.648;23.368;2022-08-19T12:14:40;6.82;;;5.78;;
10945;SDS011;5525;42.648;23.368;2022-08-19T12:17:06;7.75;;;5.78;;
10945;SDS011;5525;42.648;23.368;2022-08-19T12:19:36;6.60;;;4.55;;
10945;SDS011;5525;42.648;23.368;2022-08-19T12:22:04;5.47;;;5.05;;
10945;SDS011;5525;42.648;23.368;2022-08-19T12:24:33;9.65;;;8.70;;
10945;SDS011;5525;42.648;23.368;2022-08-19T12:27:00;7.07;;;4.97;;
10945;SDS011;5525;42.648;23.368;2022-08-19T12:29:28;6.70;;;5.60;;
10945;SDS011;5525;42.648;23.368;2022-08-19T12:31:56;5.75;;;5.10;;
10945;SDS011;5525;42.648;23.368;2022-08-19T12:34:28;5.95;;;5.35;;
10945;SDS011;5525;42.648;23.368;2022-08-19T12:36:56;6.10;;;5.50;;
10945;SDS011;5525;42.648;23.368;2022-08-19T12:39:24;5.50;;;5.00;;
10945;SDS011;5525;42.648;23.368;2022-08-19T12:41:51;6.45;;;5.25;;
10945;SDS011;5525;42.648;23.368;2022-08-19T12:44:19;5.90;;;5.35;;
10945;SDS011;5525;42.648;23.368;2022-08-19T12:46:46;6.32;;;5.22;;
10945;SDS011;5525;42.648;23.368;2022-08-19T12:49:15;6.10;;;5.60;;
10945;SDS011;5525;42.648;23.368;2022-08-19T12:51:42;6.15;;;5.53;;
10945;SDS011;5525;42.648;23.368;2022-08-19T12:54:09;5.82;;;5.22;;
10945;SDS011;5525;42.648;23.368;2022-08-19T12:56:36;6.68;;;5.47;;
10945;SDS011;5525;42.648;23.368;2022-08-19T12:59:03;5.97;;;5.22;;
10945;SDS011;5525;42.648;23.368;2022-08-19T13:01:32;5.97;;;5.47;;
10945;SDS011;5525;42.648;23.368;2022-08-19T13:04:00;6.82;;;5.78;;
10945;SDS011;5525;42.648;23.368;2022-08-19T13:06:29;6.28;;;5.68;;
10945;SDS011;5525;42.648;23.368;2022-08-19T13:08:56;7.47;;;5.50;;
10945;SDS011;5525;42.648;23.368;2022-08-19T13:11:23;7.38;;;5.60;;
10945;SDS011;5525;42.648;23.368;2022-08-19T13:13:51;6.20;;;5.70;;
10945;SDS011;5525;42.648;23.368;2022-08-19T13:16:20;6.88;;;5.63;;
10945;SDS011;5525;42.648;23.368;2022-08-19T13:18:47;10.63;;;5.88;;
10945;SDS011;5525;42.648;23.368;2022-08-19T13:21:17;6.43;;;5.35;;
10945;SDS011;5525;42.648;23.368;2022-08-19T13:23:47;9.82;;;6.15;;
10945;SDS011;5525;42.648;23.368;2022-08-19T13:26:16;6.53;;;5.93;;
10945;SDS011;5525;42.648;23.368;2022-08-19T13:28:44;6.95;;;5.95;;
10945;SDS011;5525;42.648;23.368;2022-08-19T13:31:29;6.18;;;5.47;;
10945;SDS011;5525;42.648;23.368;2022-08-19T13:34:15;7.80;;;5.47;;
10945;SDS011;5525;42.648;23.368;2022-08-19T13:36:44;6.72;;;5.60;;
10945;SDS011;5525;42.648;23.368;2022-08-19T13:39:12;7.22;;;5.50;;
10945;SDS011;5525;42.648;23.368;2022-08-19T13:41:43;9.00;;;5.38;;
10945;SDS011;5525;42.648;23.368;2022-08-19T13:44:13;7.05;;;5.53;;
10945;SDS011;5525;42.648;23.368;2022-08-19T13:46:40;6.68;;;5.40;;
10945;SDS011;5525;42.648;23.368;2022-08-19T13:49:10;7.45;;;5.72;;
10945;SDS011;5525;42.648;23.368;2022-08-19T13:51:37;8.35;;;5.90;;
10945;SDS011;5525;42.648;23.368;2022-08-19T13:54:05;6.95;;;6.15;;
10945;SDS011;5525;42.648;23.368;2022-08-19T13:56:35;6.80;;;6.10;;
10945;SDS011;5525;42.648;23.368;2022-08-19T13:59:06;6.15;;;5.55;;
10945;SDS011;5525;42.648;23.368;2022-08-19T14:01:33;8.15;;;5.70;;
10945;SDS011;5525;42.648;23.368;2022-08-19T14:04:01;6.85;;;6.13;;
10945;SDS011;5525;42.648;23.368;2022-08-19T14:06:28;6.35;;;5.60;;
10945;SDS011;5525;42.648;23.368;2022-08-19T14:08:55;7.38;;;5.75;;
10945;SDS011;5525;42.648;23.368;2022-08-19T14:11:22;6.30;;;5.35;;
10945;SDS011;5525;42.648;23.368;2022-08-19T14:13:51;6.15;;;5.57;;
10945;SDS011;5525;42.648;23.368;2022-08-19T14:16:17;6.20;;;5.60;;
10945;SDS011;5525;42.648;23.368;2022-08-19T14:18:46;5.38;;;4.88;;
10945;SDS011;5525;42.648;23.368;2022-08-19T14:21:14;6.80;;;5.88;;
10945;SDS011;5525;42.648;23.368;2022-08-19T14:23:43;8.18;;;6.22;;
10945;SDS011;5525;42.648;23.368;2022-08-19T14:26:11;7.63;;;5.90;;
10945;SDS011;5525;42.648;23.368;2022-08-19T14:28:40;6.47;;;5.72;;
10945;SDS011;5525;42.648;23.368;2022-08-19T14:31:10;6.65;;;5.88;;
10945;SDS011;5525;42.648;23.368;2022-08-19T14:33:41;8.93;;;6.03;;
10945;SDS011;5525;42.648;23.368;2022-08-19T14:36:09;9.48;;;6.20;;
10945;SDS011;5525;42.648;23.368;2022-08-19T14:38:38;7.25;;;5.80;;
10945;SDS011;5525;42.648;23.368;2022-08-19T14:41:09;5.97;;;5.47;;
10945;SDS011;5525;42.648;23.368;2022-08-19T14:43:38;9.18;;;6.07;;
10945;SDS011;5525;42.648;23.368;2022-08-19T14:46:05;7.38;;;5.60;;
10945;SDS011;5525;42.648;23.368;2022-08-19T14:48:34;7.13;;;5.85;;
10945;SDS011;5525;42.648;23.368;2022-08-19T14:51:03;6.80;;;5.97;;
10945;SDS011;5525;42.648;23.368;2022-08-19T14:53:30;6.57;;;5.85;;
10945;SDS011;5525;42.648;23.368;2022-08-19T14:55:59;8.52;;;6.55;;
10945;SDS011;5525;42.648;23.368;2022-08-19T14:58:27;6.35;;;5.60;;
10945;SDS011;5525;42.648;23.368;2022-08-19T15:00:54;6.45;;;5.70;;
10945;SDS011;5525;42.648;23.368;2022-08-19T15:03:21;6.45;;;5.72;;
10945;SDS011;5525;42.648;23.368;2022-08-19T15:05:50;6.78;;;5.90;;
10945;SDS011;5525;42.648;23.368;2022-08-19T15:08:17;6.88;;;6.25;;
10945;SDS011;5525;42.648;23.368;2022-08-19T15:10:49;6.32;;;5.68;;